sensor_id;sensor_type;location;lat;lon;timestamp;temperature;humidity
4366;DHT22;2196;47.422;9.656;2023-03-01T00:01:13;1.80;99.90
4366;DHT22;2196;47.422;9.656;2023-03-01T00:03:41;1.80;99.90
4366;DHT22;2196;47.422;9.656;2023-03-01T00:06:08;1.70;99.90
4366;DHT22;2196;47.422;9.656;2023-03-01T00:08:37;1.70;99.90
4366;DHT22;2196;47.422;9.656;2023-03-01T00:11:05;1.70;99.90
4366;DHT22;2196;47.422;9.656;2023-03-01T00:13:33;1.70;99.90
4366;DHT22;2196;47.422;9.656;2023-03-01T00:16:02;1.80;99.90
4366;DHT22;2196;47.422;9.656;2023-03-01T00:18:29;1.80;99.90
4366;DHT22;2196;47.422;9.656;2023-03-01T00:20:56;1.70;99.90
4366;DHT22;2196;47.422;9.656;2023-03-01T00:23:23;1.70;99.90
4366;DHT22;2196;47.422;9.656;2023-03-01T00:25:52;1.60;99.90
4366;DHT22;2196;47.422;9.656;2023-03-01T00:28:19;1.60;99.90
4366;DHT22;2196;47.422;9.656;2023-03-01T00:30:46;1.60;99.90
4366;DHT22;2196;47.422;9.656;2023-03-01T00:33:14;1.60;99.90
4366;DHT22;2196;47.422;9.656;2023-03-01T00:35:41;1.70;99.90
4366;DHT22;2196;47.422;9.656;2023-03-01T00:38:08;1.60;99.90
4366;DHT22;2196;47.422;9.656;2023-03-01T00:40:36;1.60;99.90
4366;DHT22;2196;47.422;9.656;2023-03-01T00:43:04;1.60;99.90
4366;DHT22;2196;47.422;9.656;2023-03-01T00:45:32;1.60;99.90
4366;DHT22;2196;47.422;9.656;2023-03-01T00:47:59;1.60;99.90
4366;DHT22;2196;47.422;9.656;2023-03-01T00:50:26;1.70;99.90
4366;DHT22;2196;47.422;9.656;2023-03-01T00:52:54;1.70;99.90
4366;DHT22;2196;47.422;9.656;2023-03-01T00:55:21;1.70;99.90
4366;DHT22;2196;47.422;9.656;2023-03-01T00:57:49;1.70;99.90
4366;DHT22;2196;47.422;9.656;2023-03-01T01:00:18;1.80;99.90
4366;DHT22;2196;47.422;9.656;2023-03-01T01:02:46;1.70;99.90
4366;DHT22;2196;47.422;9.656;2023-03-01T01:05:14;1.70;99.90
4366;DHT22;2196;47.422;9.656;2023-03-01T01:07:46;1.80;99.90
4366;DHT22;2196;47.422;9.656;2023-03-01T01:10:13;1.90;99.90
4366;DHT22;2196;47.422;9.656;2023-03-01T01:12:46;1.90;99.90
4366;DHT22;2196;47.422;9.656;2023-03-01T01:15:13;1.90;99.90
4366;DHT22;2196;47.422;9.656;2023-03-01T01:17:43;1.90;99.90
4366;DHT22;2196;47.422;9.656;2023-03-01T01:20:11;1.80;99.90
4366;DHT22;2196;47.422;9.656;2023-03-01T01:22:38;1.70;99.90
4366;DHT22;2196;47.422;9.656;2023-03-01T01:25:06;1.60;99.90
4366;DHT22;2196;47.422;9.656;2023-03-01T01:27:33;1.50;99.90
4366;DHT22;2196;47.422;9.656;2023-03-01T01:30:00;1.50;99.90
4366;DHT22;2196;47.422;9.656;2023-03-01T01:32:27;1.50;99.90
4366;DHT22;2196;47.422;9.656;2023-03-01T01:34:55;1.50;99.90
4366;DHT22;2196;47.422;9.656;2023-03-01T01:37:22;1.50;99.90
4366;DHT22;2196;47.422;9.656;2023-03-01T01:39:56;1.50;99.90
4366;DHT22;2196;47.422;9.656;2023-03-01T01:42:23;1.60;99.90
4366;DHT22;2196;47.422;9.656;2023-03-01T01:48:09;1.70;99.90
4366;DHT22;2196;47.422;9.656;2023-03-01T01:50:39;1.60;99.90
4366;DHT22;2196;47.422;9.656;2023-03-01T01:53:10;1.60;99.90
4366;DHT22;2196;47.422;9.656;2023-03-01T01:55:42;1.60;99.90
4366;DHT22;2196;47.422;9.656;2023-03-01T01:58:11;1.60;99.90
4366;DHT22;2196;47.422;9.656;2023-03-01T02:00:40;1.70;99.90
4366;DHT22;2196;47.422;9.656;2023-03-01T02:03:10;1.60;99.90
4366;DHT22;2196;47.422;9.656;2023-03-01T02:05:44;1.60;99.90
4366;DHT22;2196;47.422;9.656;2023-03-01T02:08:14;1.60;99.90
4366;DHT22;2196;47.422;9.656;2023-03-01T02:10:42;1.50;99.90
4366;DHT22;2196;47.422;9.656;2023-03-01T02:13:09;1.50;99.90
4366;DHT22;2196;47.422;9.656;2023-03-01T02:15:38;1.50;99.90
4366;DHT22;2196;47.422;9.656;2023-03-01T02:18:07;1.50;99.90
4366;DHT22;2196;47.422;9.656;2023-03-01T02:20:38;1.50;99.90
4366;DHT22;2196;47.422;9.656;2023-03-01T02:23:08;1.50;99.90
4366;DHT22;2196;47.422;9.656;2023-03-01T02:25:40;1.50;99.90
4366;DHT22;2196;47.422;9.656;2023-03-01T02:28:22;1.50;99.90
4366;DHT22;2196;47.422;9.656;2023-03-01T02:30:50;1.60;99.90
4366;DHT22;2196;47.422;9.656;2023-03-01T02:33:36;1.70;99.90
4366;DHT22;2196;47.422;9.656;2023-03-01T02:36:07;1.60;99.90
4366;DHT22;2196;47.422;9.656;2023-03-01T02:38:35;1.50;99.90
4366;DHT22;2196;47.422;9.656;2023-03-01T02:41:03;1.60;99.90
4366;DHT22;2196;47.422;9.656;2023-03-01T02:43:33;1.50;99.90
4366;DHT22;2196;47.422;9.656;2023-03-01T02:46:04;1.50;99.90
4366;DHT22;2196;47.422;9.656;2023-03-01T02:48:40;1.50;99.90
4366;DHT22;2196;47.422;9.656;2023-03-01T02:51:13;1.60;99.90
4366;DHT22;2196;47.422;9.656;2023-03-01T02:53:56;1.50;99.90
4366;DHT22;2196;47.422;9.656;2023-03-01T02:56:26;1.40;99.90
4366;DHT22;2196;47.422;9.656;2023-03-01T02:58:54;1.40;99.90
4366;DHT22;2196;47.422;9.656;2023-03-01T03:01:26;1.30;99.90
4366;DHT22;2196;47.422;9.656;2023-03-01T03:04:02;1.30;99.90
4366;DHT22;2196;47.422;9.656;2023-03-01T03:06:29;1.40;99.90
4366;DHT22;2196;47.422;9.656;2023-03-01T03:08:56;1.50;99.90
4366;DHT22;2196;47.422;9.656;2023-03-01T03:11:23;1.50;99.90
4366;DHT22;2196;47.422;9.656;2023-03-01T03:13:50;1.50;99.90
4366;DHT22;2196;47.422;9.656;2023-03-01T03:16:19;1.50;99.90
4366;DHT22;2196;47.422;9.656;2023-03-01T03:18:47;1.50;99.90
4366;DHT22;2196;47.422;9.656;2023-03-01T03:21:14;1.50;99.90
4366;DHT22;2196;47.422;9.656;2023-03-01T03:23:42;1.50;99.90
4366;DHT22;2196;47.422;9.656;2023-03-01T03:26:09;1.50;99.90
4366;DHT22;2196;47.422;9.656;2023-03-01T03:28:41;1.50;99.90
4366;DHT22;2196;47.422;9.656;2023-03-01T03:31:08;1.40;99.90
4366;DHT22;2196;47.422;9.656;2023-03-01T03:33:37;1.40;99.90
4366;DHT22;2196;47.422;9.656;2023-03-01T03:36:04;1.30;99.90
4366;DHT22;2196;47.422;9.656;2023-03-01T03:38:31;1.30;99.90
4366;DHT22;2196;47.422;9.656;2023-03-01T03:41:03;1.20;99.90
4366;DHT22;2196;47.422;9.656;2023-03-01T03:43:32;1.30;99.90
4366;DHT22;2196;47.422;9.656;2023-03-01T03:45:59;1.30;99.90
4366;DHT22;2196;47.422;9.656;2023-03-01T03:48:26;1.30;99.90
4366;DHT22;2196;47.422;9.656;2023-03-01T03:50:56;1.30;99.90
4366;DHT22;2196;47.422;9.656;2023-03-01T03:53:27;1.30;99.90
4366;DHT22;2196;47.422;9.656;2023-03-01T03:55:54;1.40;99.90
4366;DHT22;2196;47.422;9.656;2023-03-01T03:58:24;1.30;99.90
4366;DHT22;2196;47.422;9.656;2023-03-01T04:00:53;1.30;99.90
4366;DHT22;2196;47.422;9.656;2023-03-01T04:03:21;1.30;99.90
4366;DHT22;2196;47.422;9.656;2023-03-01T04:05:50;1.40;99.90
4366;DHT22;2196;47.422;9.656;2023-03-01T04:08:20;1.30;99.90
4366;DHT22;2196;47.422;9.656;2023-03-01T04:10:50;1.30;99.90
4366;DHT22;2196;47.422;9.656;2023-03-01T04:13:19;1.40;99.90
4366;DHT22;2196;47.422;9.656;2023-03-01T04:15:47;1.30;99.90
4366;DHT22;2196;47.422;9.656;2023-03-01T04:18:16;1.30;99.90
4366;DHT22;2196;47.422;9.656;2023-03-01T04:20:44;1.30;99.90
4366;DHT22;2196;47.422;9.656;2023-03-01T04:23:13;1.40;99.90
4366;DHT22;2196;47.422;9.656;2023-03-01T04:25:46;1.40;99.90
4366;DHT22;2196;47.422;9.656;2023-03-01T04:28:19;1.40;99.90
4366;DHT22;2196;47.422;9.656;2023-03-01T04:30:47;1.20;99.90
4366;DHT22;2196;47.422;9.656;2023-03-01T04:33:14;1.30;99.90
4366;DHT22;2196;47.422;9.656;2023-03-01T04:35:41;1.30;99.90
4366;DHT22;2196;47.422;9.656;2023-03-01T04:38:08;1.30;99.90
4366;DHT22;2196;47.422;9.656;2023-03-01T04:40:36;1.40;99.90
4366;DHT22;2196;47.422;9.656;2023-03-01T04:43:04;1.40;99.90
4366;DHT22;2196;47.422;9.656;2023-03-01T04:45:33;1.40;99.90
4366;DHT22;2196;47.422;9.656;2023-03-01T04:48:01;1.40;99.90
4366;DHT22;2196;47.422;9.656;2023-03-01T04:50:28;1.30;99.90
4366;DHT22;2196;47.422;9.656;2023-03-01T04:52:56;1.20;99.90
4366;DHT22;2196;47.422;9.656;2023-03-01T04:55:26;1.20;99.90
4366;DHT22;2196;47.422;9.656;2023-03-01T04:57:53;1.30;99.90
4366;DHT22;2196;47.422;9.656;2023-03-01T05:00:23;1.20;99.90
4366;DHT22;2196;47.422;9.656;2023-03-01T05:02:51;1.20;99.90
4366;DHT22;2196;47.422;9.656;2023-03-01T05:05:25;1.20;99.90
4366;DHT22;2196;47.422;9.656;2023-03-01T05:07:54;1.20;99.90
4366;DHT22;2196;47.422;9.656;2023-03-01T05:10:24;1.20;99.90
4366;DHT22;2196;47.422;9.656;2023-03-01T05:12:51;1.20;99.90
4366;DHT22;2196;47.422;9.656;2023-03-01T05:15:19;1.10;99.90
4366;DHT22;2196;47.422;9.656;2023-03-01T05:17:49;1.00;99.90
4366;DHT22;2196;47.422;9.656;2023-03-01T05:20:16;1.00;99.90
4366;DHT22;2196;47.422;9.656;2023-03-01T05:22:46;1.10;99.90
4366;DHT22;2196;47.422;9.656;2023-03-01T05:25:14;1.20;99.90
4366;DHT22;2196;47.422;9.656;2023-03-01T05:27:45;1.20;99.90
4366;DHT22;2196;47.422;9.656;2023-03-01T05:30:13;1.20;99.90
4366;DHT22;2196;47.422;9.656;2023-03-01T05:32:41;1.20;99.90
4366;DHT22;2196;47.422;9.656;2023-03-01T05:35:14;1.20;99.90
4366;DHT22;2196;47.422;9.656;2023-03-01T05:37:44;1.20;99.90
4366;DHT22;2196;47.422;9.656;2023-03-01T05:40:15;1.20;99.90
4366;DHT22;2196;47.422;9.656;2023-03-01T05:42:43;1.20;99.90
4366;DHT22;2196;47.422;9.656;2023-03-01T05:45:11;1.20;99.90
4366;DHT22;2196;47.422;9.656;2023-03-01T05:47:44;1.10;99.90
4366;DHT22;2196;47.422;9.656;2023-03-01T05:50:16;1.10;99.90
4366;DHT22;2196;47.422;9.656;2023-03-01T05:52:48;1.10;99.90
4366;DHT22;2196;47.422;9.656;2023-03-01T05:55:16;1.10;99.90
4366;DHT22;2196;47.422;9.656;2023-03-01T05:57:47;1.10;99.90
4366;DHT22;2196;47.422;9.656;2023-03-01T06:00:17;1.10;99.90
4366;DHT22;2196;47.422;9.656;2023-03-01T06:02:44;1.10;99.90
4366;DHT22;2196;47.422;9.656;2023-03-01T06:05:15;1.10;99.90
4366;DHT22;2196;47.422;9.656;2023-03-01T06:07:42;1.20;99.90
4366;DHT22;2196;47.422;9.656;2023-03-01T06:10:11;1.20;99.90
4366;DHT22;2196;47.422;9.656;2023-03-01T06:12:43;1.20;99.90
4366;DHT22;2196;47.422;9.656;2023-03-01T06:15:11;1.30;99.90
4366;DHT22;2196;47.422;9.656;2023-03-01T06:17:45;1.30;99.90
4366;DHT22;2196;47.422;9.656;2023-03-01T06:20:15;1.20;99.90
4366;DHT22;2196;47.422;9.656;2023-03-01T06:22:43;1.10;99.90
4366;DHT22;2196;47.422;9.656;2023-03-01T06:25:11;1.20;99.90
4366;DHT22;2196;47.422;9.656;2023-03-01T06:27:39;1.30;99.90
4366;DHT22;2196;47.422;9.656;2023-03-01T06:30:08;1.20;99.90
4366;DHT22;2196;47.422;9.656;2023-03-01T06:32:36;1.20;99.90
4366;DHT22;2196;47.422;9.656;2023-03-01T06:35:04;1.30;99.90
4366;DHT22;2196;47.422;9.656;2023-03-01T06:37:32;1.20;99.90
4366;DHT22;2196;47.422;9.656;2023-03-01T06:40:00;1.20;99.90
4366;DHT22;2196;47.422;9.656;2023-03-01T06:42:30;1.20;99.90
4366;DHT22;2196;47.422;9.656;2023-03-01T06:44:57;1.20;99.90
4366;DHT22;2196;47.422;9.656;2023-03-01T06:47:24;1.20;99.90
4366;DHT22;2196;47.422;9.656;2023-03-01T06:49:51;1.20;99.90
4366;DHT22;2196;47.422;9.656;2023-03-01T06:52:18;1.20;99.90
4366;DHT22;2196;47.422;9.656;2023-03-01T06:54:47;1.20;99.90
4366;DHT22;2196;47.422;9.656;2023-03-01T06:57:13;1.30;99.90
4366;DHT22;2196;47.422;9.656;2023-03-01T06:59:40;1.30;99.90
4366;DHT22;2196;47.422;9.656;2023-03-01T07:02:10;1.20;99.90
4366;DHT22;2196;47.422;9.656;2023-03-01T07:04:37;1.20;99.90
4366;DHT22;2196;47.422;9.656;2023-03-01T07:07:04;1.30;99.90
4366;DHT22;2196;47.422;9.656;2023-03-01T07:09:31;1.30;99.90
4366;DHT22;2196;47.422;9.656;2023-03-01T07:12:00;1.30;99.90
4366;DHT22;2196;47.422;9.656;2023-03-01T07:14:27;1.40;99.90
4366;DHT22;2196;47.422;9.656;2023-03-01T07:16:55;1.50;99.90
4366;DHT22;2196;47.422;9.656;2023-03-01T07:19:22;1.50;99.90
4366;DHT22;2196;47.422;9.656;2023-03-01T07:21:49;1.60;99.90
4366;DHT22;2196;47.422;9.656;2023-03-01T07:24:17;1.70;99.90
4366;DHT22;2196;47.422;9.656;2023-03-01T07:26:47;1.60;99.90
4366;DHT22;2196;47.422;9.656;2023-03-01T07:29:16;1.70;99.90
4366;DHT22;2196;47.422;9.656;2023-03-01T07:31:43;1.80;99.90
4366;DHT22;2196;47.422;9.656;2023-03-01T07:34:11;1.80;99.90
4366;DHT22;2196;47.422;9.656;2023-03-01T07:36:38;1.80;99.90
4366;DHT22;2196;47.422;9.656;2023-03-01T07:39:09;1.80;99.90
4366;DHT22;2196;47.422;9.656;2023-03-01T07:41:36;1.80;99.90
4366;DHT22;2196;47.422;9.656;2023-03-01T07:44:03;1.80;99.90
4366;DHT22;2196;47.422;9.656;2023-03-01T07:46:32;1.80;99.90
4366;DHT22;2196;47.422;9.656;2023-03-01T07:49:00;1.80;99.90
4366;DHT22;2196;47.422;9.656;2023-03-01T07:51:27;1.80;99.90
4366;DHT22;2196;47.422;9.656;2023-03-01T07:53:53;1.90;99.90
4366;DHT22;2196;47.422;9.656;2023-03-01T07:56:20;1.90;99.90
4366;DHT22;2196;47.422;9.656;2023-03-01T07:58:47;2.00;99.90
4366;DHT22;2196;47.422;9.656;2023-03-01T08:01:17;2.00;99.90
4366;DHT22;2196;47.422;9.656;2023-03-01T08:03:46;2.10;99.90
4366;DHT22;2196;47.422;9.656;2023-03-01T08:06:14;2.00;99.90
4366;DHT22;2196;47.422;9.656;2023-03-01T08:08:41;2.10;99.90
4366;DHT22;2196;47.422;9.656;2023-03-01T08:11:11;2.10;99.90
4366;DHT22;2196;47.422;9.656;2023-03-01T08:13:38;2.20;99.90
4366;DHT22;2196;47.422;9.656;2023-03-01T08:16:08;2.20;99.90
4366;DHT22;2196;47.422;9.656;2023-03-01T08:18:36;2.10;99.90
4366;DHT22;2196;47.422;9.656;2023-03-01T08:21:07;2.10;99.90
4366;DHT22;2196;47.422;9.656;2023-03-01T08:23:34;2.10;99.90
4366;DHT22;2196;47.422;9.656;2023-03-01T08:26:05;2.10;99.90
4366;DHT22;2196;47.422;9.656;2023-03-01T08:28:32;2.10;99.90
4366;DHT22;2196;47.422;9.656;2023-03-01T08:30:59;2.10;99.90
4366;DHT22;2196;47.422;9.656;2023-03-01T08:33:27;2.20;99.90
4366;DHT22;2196;47.422;9.656;2023-03-01T08:36:03;2.30;99.90
4366;DHT22;2196;47.422;9.656;2023-03-01T08:38:31;2.50;99.90
4366;DHT22;2196;47.422;9.656;2023-03-01T08:41:00;2.60;99.90
4366;DHT22;2196;47.422;9.656;2023-03-01T08:43:27;2.70;99.90
4366;DHT22;2196;47.422;9.656;2023-03-01T08:45:54;2.70;99.90
4366;DHT22;2196;47.422;9.656;2023-03-01T08:48:21;2.80;99.90
4366;DHT22;2196;47.422;9.656;2023-03-01T08:50:48;2.90;99.90
4366;DHT22;2196;47.422;9.656;2023-03-01T08:53:15;3.00;99.90
4366;DHT22;2196;47.422;9.656;2023-03-01T08:55:43;3.00;99.90
4366;DHT22;2196;47.422;9.656;2023-03-01T08:58:10;3.10;99.90
4366;DHT22;2196;47.422;9.656;2023-03-01T09:00:37;3.10;99.90
4366;DHT22;2196;47.422;9.656;2023-03-01T09:03:05;3.10;99.90
4366;DHT22;2196;47.422;9.656;2023-03-01T09:05:33;3.10;99.90
4366;DHT22;2196;47.422;9.656;2023-03-01T09:08:01;3.10;99.90
4366;DHT22;2196;47.422;9.656;2023-03-01T09:10:28;3.10;99.90
4366;DHT22;2196;47.422;9.656;2023-03-01T09:12:57;3.20;99.90
4366;DHT22;2196;47.422;9.656;2023-03-01T09:15:23;3.30;99.90
4366;DHT22;2196;47.422;9.656;2023-03-01T09:17:50;3.40;99.90
4366;DHT22;2196;47.422;9.656;2023-03-01T09:20:17;3.60;99.90
4366;DHT22;2196;47.422;9.656;2023-03-01T09:22:44;3.60;99.90
4366;DHT22;2196;47.422;9.656;2023-03-01T09:25:11;3.60;99.90
4366;DHT22;2196;47.422;9.656;2023-03-01T09:27:38;3.70;99.90
4366;DHT22;2196;47.422;9.656;2023-03-01T09:30:10;3.60;99.90
4366;DHT22;2196;47.422;9.656;2023-03-01T09:32:38;3.70;99.90
4366;DHT22;2196;47.422;9.656;2023-03-01T09:35:08;3.70;99.90
4366;DHT22;2196;47.422;9.656;2023-03-01T09:37:35;3.70;99.90
4366;DHT22;2196;47.422;9.656;2023-03-01T09:40:05;3.70;99.90
4366;DHT22;2196;47.422;9.656;2023-03-01T09:42:33;3.70;99.90
4366;DHT22;2196;47.422;9.656;2023-03-01T09:45:04;3.60;99.90
4366;DHT22;2196;47.422;9.656;2023-03-01T09:47:35;3.70;99.90
4366;DHT22;2196;47.422;9.656;2023-03-01T09:50:06;3.80;99.90
4366;DHT22;2196;47.422;9.656;2023-03-01T09:52:43;3.90;99.90
4366;DHT22;2196;47.422;9.656;2023-03-01T09:55:12;4.00;99.90
4366;DHT22;2196;47.422;9.656;2023-03-01T09:57:47;4.00;99.90
4366;DHT22;2196;47.422;9.656;2023-03-01T10:00:30;4.10;99.90
4366;DHT22;2196;47.422;9.656;2023-03-01T10:03:11;4.30;99.90
4366;DHT22;2196;47.422;9.656;2023-03-01T10:05:47;4.30;99.90
4366;DHT22;2196;47.422;9.656;2023-03-01T10:08:28;4.30;99.90
4366;DHT22;2196;47.422;9.656;2023-03-01T10:10:58;4.30;99.90
4366;DHT22;2196;47.422;9.656;2023-03-01T10:13:31;4.30;99.90
4366;DHT22;2196;47.422;9.656;2023-03-01T10:16:05;4.40;99.90
4366;DHT22;2196;47.422;9.656;2023-03-01T10:18:37;4.60;99.90
4366;DHT22;2196;47.422;9.656;2023-03-01T10:21:13;4.70;99.90
4366;DHT22;2196;47.422;9.656;2023-03-01T10:23:41;4.90;99.90
4366;DHT22;2196;47.422;9.656;2023-03-01T10:26:25;5.00;99.90
4366;DHT22;2196;47.422;9.656;2023-03-01T10:29:01;5.10;99.90
4366;DHT22;2196;47.422;9.656;2023-03-01T10:31:38;5.10;99.90
4366;DHT22;2196;47.422;9.656;2023-03-01T10:34:11;5.40;99.90
4366;DHT22;2196;47.422;9.656;2023-03-01T10:36:39;5.30;99.90
4366;DHT22;2196;47.422;9.656;2023-03-01T10:39:13;5.20;99.90
4366;DHT22;2196;47.422;9.656;2023-03-01T10:41:53;5.20;99.90
4366;DHT22;2196;47.422;9.656;2023-03-01T10:44:38;5.50;99.90
4366;DHT22;2196;47.422;9.656;2023-03-01T10:47:17;5.60;99.90
4366;DHT22;2196;47.422;9.656;2023-03-01T10:49:58;5.40;99.90
4366;DHT22;2196;47.422;9.656;2023-03-01T10:52:29;5.40;99.90
4366;DHT22;2196;47.422;9.656;2023-03-01T10:54:58;5.10;99.90
4366;DHT22;2196;47.422;9.656;2023-03-01T10:57:32;5.10;99.90
4366;DHT22;2196;47.422;9.656;2023-03-01T11:00:21;5.30;99.90
4366;DHT22;2196;47.422;9.656;2023-03-01T11:02:51;5.30;99.90
4366;DHT22;2196;47.422;9.656;2023-03-01T11:05:30;5.30;99.90
4366;DHT22;2196;47.422;9.656;2023-03-01T11:08:00;5.30;99.90
4366;DHT22;2196;47.422;9.656;2023-03-01T11:10:30;5.30;99.90
4366;DHT22;2196;47.422;9.656;2023-03-01T11:13:09;5.30;99.90
4366;DHT22;2196;47.422;9.656;2023-03-01T11:15:40;5.40;99.90
4366;DHT22;2196;47.422;9.656;2023-03-01T11:18:19;5.40;99.90
4366;DHT22;2196;47.422;9.656;2023-03-01T11:20:49;5.50;99.90
4366;DHT22;2196;47.422;9.656;2023-03-01T11:23:18;5.50;99.90
4366;DHT22;2196;47.422;9.656;2023-03-01T11:25:51;5.70;99.90
4366;DHT22;2196;47.422;9.656;2023-03-01T11:28:22;6.00;99.90
4366;DHT22;2196;47.422;9.656;2023-03-01T11:30:53;6.20;99.90
4366;DHT22;2196;47.422;9.656;2023-03-01T11:33:33;6.70;99.90
4366;DHT22;2196;47.422;9.656;2023-03-01T11:36:07;7.10;99.90
4366;DHT22;2196;47.422;9.656;2023-03-01T11:38:38;6.90;99.90
4366;DHT22;2196;47.422;9.656;2023-03-01T11:41:08;7.00;99.90
4366;DHT22;2196;47.422;9.656;2023-03-01T11:43:47;6.70;99.90
4366;DHT22;2196;47.422;9.656;2023-03-01T11:46:33;6.20;99.90
4366;DHT22;2196;47.422;9.656;2023-03-01T11:49:19;5.80;99.90
4366;DHT22;2196;47.422;9.656;2023-03-01T11:51:59;5.70;99.90
4366;DHT22;2196;47.422;9.656;2023-03-01T11:54:41;5.70;99.90
4366;DHT22;2196;47.422;9.656;2023-03-01T11:57:20;5.80;99.90
4366;DHT22;2196;47.422;9.656;2023-03-01T12:00:14;5.80;99.90
4366;DHT22;2196;47.422;9.656;2023-03-01T12:08:51;5.40;99.90
4366;DHT22;2196;47.422;9.656;2023-03-01T12:11:32;5.40;99.90
4366;DHT22;2196;47.422;9.656;2023-03-01T12:14:30;5.00;99.90
4366;DHT22;2196;47.422;9.656;2023-03-01T12:17:20;4.90;99.90
4366;DHT22;2196;47.422;9.656;2023-03-01T12:23:11;5.10;99.90
4366;DHT22;2196;47.422;9.656;2023-03-01T12:25:49;5.40;99.90
4366;DHT22;2196;47.422;9.656;2023-03-01T12:28:30;5.60;99.90
4366;DHT22;2196;47.422;9.656;2023-03-01T12:31:25;5.80;99.90
4366;DHT22;2196;47.422;9.656;2023-03-01T12:34:01;5.80;99.90
4366;DHT22;2196;47.422;9.656;2023-03-01T12:36:42;5.70;99.90
4366;DHT22;2196;47.422;9.656;2023-03-01T12:39:24;5.40;99.90
4366;DHT22;2196;47.422;9.656;2023-03-01T12:42:02;5.50;99.90
4366;DHT22;2196;47.422;9.656;2023-03-01T12:44:47;5.40;99.90
4366;DHT22;2196;47.422;9.656;2023-03-01T12:47:26;5.30;99.90
4366;DHT22;2196;47.422;9.656;2023-03-01T12:50:01;5.40;99.90
4366;DHT22;2196;47.422;9.656;2023-03-01T12:52:35;5.50;99.90
4366;DHT22;2196;47.422;9.656;2023-03-01T12:55:17;5.60;99.90
4366;DHT22;2196;47.422;9.656;2023-03-01T12:57:53;5.90;99.90
4366;DHT22;2196;47.422;9.656;2023-03-01T13:00:28;6.00;99.90
4366;DHT22;2196;47.422;9.656;2023-03-01T13:03:02;6.00;99.90
4366;DHT22;2196;47.422;9.656;2023-03-01T13:05:39;5.90;99.90
4366;DHT22;2196;47.422;9.656;2023-03-01T13:08:15;5.80;99.90
4366;DHT22;2196;47.422;9.656;2023-03-01T13:10:49;6.00;99.90
4366;DHT22;2196;47.422;9.656;2023-03-01T13:13:22;5.90;99.90
4366;DHT22;2196;47.422;9.656;2023-03-01T13:15:51;5.90;99.90
4366;DHT22;2196;47.422;9.656;2023-03-01T13:18:28;5.80;99.90
4366;DHT22;2196;47.422;9.656;2023-03-01T13:20:57;5.60;99.90
4366;DHT22;2196;47.422;9.656;2023-03-01T13:23:27;5.40;99.90
4366;DHT22;2196;47.422;9.656;2023-03-01T13:26:10;5.50;99.90
4366;DHT22;2196;47.422;9.656;2023-03-01T13:28:55;5.60;99.90
4366;DHT22;2196;47.422;9.656;2023-03-01T13:31:59;5.80;99.90
4366;DHT22;2196;47.422;9.656;2023-03-01T13:34:47;5.90;99.90
4366;DHT22;2196;47.422;9.656;2023-03-01T13:37:32;6.10;99.90
4366;DHT22;2196;47.422;9.656;2023-03-01T13:40:08;6.00;99.90
4366;DHT22;2196;47.422;9.656;2023-03-01T13:42:54;5.80;99.90
4366;DHT22;2196;47.422;9.656;2023-03-01T13:45:25;5.80;99.90
4366;DHT22;2196;47.422;9.656;2023-03-01T13:48:02;5.70;99.90
4366;DHT22;2196;47.422;9.656;2023-03-01T13:50:36;5.50;99.90
4366;DHT22;2196;47.422;9.656;2023-03-01T13:53:06;5.50;99.90
4366;DHT22;2196;47.422;9.656;2023-03-01T13:55:40;5.60;99.90
4366;DHT22;2196;47.422;9.656;2023-03-01T13:58:21;5.50;99.90
4366;DHT22;2196;47.422;9.656;2023-03-01T14:00:56;5.40;99.90
4366;DHT22;2196;47.422;9.656;2023-03-01T14:03:24;5.30;99.90
4366;DHT22;2196;47.422;9.656;2023-03-01T14:06:04;5.30;99.90
4366;DHT22;2196;47.422;9.656;2023-03-01T14:08:34;5.20;99.90
4366;DHT22;2196;47.422;9.656;2023-03-01T14:11:35;5.10;99.90
4366;DHT22;2196;47.422;9.656;2023-03-01T14:14:36;5.00;99.90
4366;DHT22;2196;47.422;9.656;2023-03-01T14:20:00;5.20;99.90
4366;DHT22;2196;47.422;9.656;2023-03-01T14:22:31;5.10;99.90
4366;DHT22;2196;47.422;9.656;2023-03-01T14:25:01;5.10;99.90
4366;DHT22;2196;47.422;9.656;2023-03-01T14:27:33;5.20;99.90
4366;DHT22;2196;47.422;9.656;2023-03-01T14:30:10;5.20;99.90
4366;DHT22;2196;47.422;9.656;2023-03-01T14:32:42;5.10;99.90
4366;DHT22;2196;47.422;9.656;2023-03-01T14:35:20;5.10;99.90
4366;DHT22;2196;47.422;9.656;2023-03-01T14:37:47;5.00;99.90
4366;DHT22;2196;47.422;9.656;2023-03-01T14:40:22;4.80;99.90
4366;DHT22;2196;47.422;9.656;2023-03-01T14:42:49;4.70;99.90
4366;DHT22;2196;47.422;9.656;2023-03-01T14:45:19;4.60;99.90
4366;DHT22;2196;47.422;9.656;2023-03-01T14:47:47;4.40;99.90
4366;DHT22;2196;47.422;9.656;2023-03-01T14:50:24;4.30;99.90
4366;DHT22;2196;47.422;9.656;2023-03-01T14:52:54;4.30;99.90
4366;DHT22;2196;47.422;9.656;2023-03-01T14:55:26;4.30;99.90
4366;DHT22;2196;47.422;9.656;2023-03-01T14:57:53;4.30;99.90
4366;DHT22;2196;47.422;9.656;2023-03-01T15:00:24;4.20;99.90
4366;DHT22;2196;47.422;9.656;2023-03-01T15:02:52;4.30;99.90
4366;DHT22;2196;47.422;9.656;2023-03-01T15:05:26;4.30;99.90
4366;DHT22;2196;47.422;9.656;2023-03-01T15:07:55;4.40;99.90
4366;DHT22;2196;47.422;9.656;2023-03-01T15:10:25;4.30;99.90
4366;DHT22;2196;47.422;9.656;2023-03-01T15:12:53;4.30;99.90
4366;DHT22;2196;47.422;9.656;2023-03-01T15:15:30;4.30;99.90
4366;DHT22;2196;47.422;9.656;2023-03-01T15:17:59;4.20;99.90
4366;DHT22;2196;47.422;9.656;2023-03-01T15:20:28;4.10;99.90
4366;DHT22;2196;47.422;9.656;2023-03-01T15:22:58;4.00;99.90
4366;DHT22;2196;47.422;9.656;2023-03-01T15:25:27;4.10;99.90
4366;DHT22;2196;47.422;9.656;2023-03-01T15:27:56;4.10;99.90
4366;DHT22;2196;47.422;9.656;2023-03-01T15:30:26;4.10;99.90
4366;DHT22;2196;47.422;9.656;2023-03-01T15:33:15;4.00;99.90
4366;DHT22;2196;47.422;9.656;2023-03-01T15:35:45;4.10;99.90
4366;DHT22;2196;47.422;9.656;2023-03-01T15:38:32;4.00;99.90
4366;DHT22;2196;47.422;9.656;2023-03-01T15:41:00;4.00;99.90
4366;DHT22;2196;47.422;9.656;2023-03-01T15:43:38;3.90;99.90
4366;DHT22;2196;47.422;9.656;2023-03-01T15:46:16;3.90;99.90
4366;DHT22;2196;47.422;9.656;2023-03-01T15:48:45;3.90;99.90
4366;DHT22;2196;47.422;9.656;2023-03-01T15:51:13;3.80;99.90
4366;DHT22;2196;47.422;9.656;2023-03-01T15:53:41;3.80;99.90
4366;DHT22;2196;47.422;9.656;2023-03-01T15:56:09;3.90;99.90
4366;DHT22;2196;47.422;9.656;2023-03-01T15:58:36;3.90;99.90
4366;DHT22;2196;47.422;9.656;2023-03-01T16:01:07;3.80;99.90
4366;DHT22;2196;47.422;9.656;2023-03-01T16:03:39;3.80;99.90
4366;DHT22;2196;47.422;9.656;2023-03-01T16:06:08;3.70;99.90
4366;DHT22;2196;47.422;9.656;2023-03-01T16:08:35;3.70;99.90
4366;DHT22;2196;47.422;9.656;2023-03-01T16:11:03;3.70;99.90
4366;DHT22;2196;47.422;9.656;2023-03-01T16:13:31;3.70;99.90
4366;DHT22;2196;47.422;9.656;2023-03-01T16:15:58;3.70;99.90
4366;DHT22;2196;47.422;9.656;2023-03-01T16:18:25;3.60;99.90
4366;DHT22;2196;47.422;9.656;2023-03-01T16:20:53;3.70;99.90
4366;DHT22;2196;47.422;9.656;2023-03-01T16:23:20;3.70;99.90
4366;DHT22;2196;47.422;9.656;2023-03-01T16:25:50;3.70;99.90
4366;DHT22;2196;47.422;9.656;2023-03-01T16:28:17;3.60;99.90
4366;DHT22;2196;47.422;9.656;2023-03-01T16:30:46;3.70;99.90
4366;DHT22;2196;47.422;9.656;2023-03-01T16:33:14;3.60;99.90
4366;DHT22;2196;47.422;9.656;2023-03-01T16:35:41;3.60;99.90
4366;DHT22;2196;47.422;9.656;2023-03-01T16:38:10;3.60;99.90
4366;DHT22;2196;47.422;9.656;2023-03-01T16:40:37;3.60;99.90
4366;DHT22;2196;47.422;9.656;2023-03-01T16:43:04;3.60;99.90
4366;DHT22;2196;47.422;9.656;2023-03-01T16:45:35;3.50;99.90
4366;DHT22;2196;47.422;9.656;2023-03-01T16:48:02;3.40;99.90
4366;DHT22;2196;47.422;9.656;2023-03-01T16:50:29;3.50;99.90
4366;DHT22;2196;47.422;9.656;2023-03-01T16:52:56;3.60;99.90
4366;DHT22;2196;47.422;9.656;2023-03-01T16:55:25;3.60;99.90
4366;DHT22;2196;47.422;9.656;2023-03-01T16:57:52;3.60;99.90